sensor_id;sensor_type;location;lat;lon;timestamp;temperature;humidity
39099;DHT22;24844;52.380;7.018;2023-09-07T00:01:26;19.10;99.90
39099;DHT22;24844;52.380;7.018;2023-09-07T00:03:51;19.10;99.90
39099;DHT22;24844;52.380;7.018;2023-09-07T00:06:17;19.00;99.90
39099;DHT22;24844;52.380;7.018;2023-09-07T00:08:44;19.00;99.90
39099;DHT22;24844;52.380;7.018;2023-09-07T00:11:10;19.00;99.90
39099;DHT22;24844;52.380;7.018;2023-09-07T00:13:36;19.00;99.90
39099;DHT22;24844;52.380;7.018;2023-09-07T00:16:05;18.90;99.90
39099;DHT22;24844;52.380;7.018;2023-09-07T00:18:32;18.90;99.90
39099;DHT22;24844;52.380;7.018;2023-09-07T00:20:59;18.80;99.90
39099;DHT22;24844;52.380;7.018;2023-09-07T00:23:25;18.80;99.90
39099;DHT22;24844;52.380;7.018;2023-09-07T00:25:51;18.80;99.90
39099;DHT22;24844;52.380;7.018;2023-09-07T00:28:16;18.80;99.90
39099;DHT22;24844;52.380;7.018;2023-09-07T00:30:43;18.70;99.90
39099;DHT22;24844;52.380;7.018;2023-09-07T00:33:09;18.70;99.90
39099;DHT22;24844;52.380;7.018;2023-09-07T00:35:35;18.70;99.90
39099;DHT22;24844;52.380;7.018;2023-09-07T00:38:01;18.60;99.90
39099;DHT22;24844;52.380;7.018;2023-09-07T00:40:26;18.60;99.90
39099;DHT22;24844;52.380;7.018;2023-09-07T00:42:53;18.60;99.90
39099;DHT22;24844;52.380;7.018;2023-09-07T00:45:19;18.60;99.90
39099;DHT22;24844;52.380;7.018;2023-09-07T00:47:44;18.60;99.90
39099;DHT22;24844;52.380;7.018;2023-09-07T00:50:11;18.60;99.90
39099;DHT22;24844;52.380;7.018;2023-09-07T00:52:42;18.50;99.90
39099;DHT22;24844;52.380;7.018;2023-09-07T00:55:09;18.50;99.90
39099;DHT22;24844;52.380;7.018;2023-09-07T00:57:35;18.50;99.90
39099;DHT22;24844;52.380;7.018;2023-09-07T01:00:03;18.40;99.90
39099;DHT22;24844;52.380;7.018;2023-09-07T01:02:29;18.40;99.90
39099;DHT22;24844;52.380;7.018;2023-09-07T01:04:56;18.40;99.90
39099;DHT22;24844;52.380;7.018;2023-09-07T01:07:30;18.40;99.90
39099;DHT22;24844;52.380;7.018;2023-09-07T01:09:59;18.30;99.90
39099;DHT22;24844;52.380;7.018;2023-09-07T01:12:26;18.20;99.90
39099;DHT22;24844;52.380;7.018;2023-09-07T01:14:52;18.20;99.90
39099;DHT22;24844;52.380;7.018;2023-09-07T01:17:19;18.20;99.90
39099;DHT22;24844;52.380;7.018;2023-09-07T01:19:47;18.20;99.90
39099;DHT22;24844;52.380;7.018;2023-09-07T01:22:19;18.10;99.90
39099;DHT22;24844;52.380;7.018;2023-09-07T01:24:45;18.00;99.90
39099;DHT22;24844;52.380;7.018;2023-09-07T01:27:12;18.00;99.90
39099;DHT22;24844;52.380;7.018;2023-09-07T01:29:39;18.00;99.90
39099;DHT22;24844;52.380;7.018;2023-09-07T01:32:05;18.00;99.90
39099;DHT22;24844;52.380;7.018;2023-09-07T01:34:31;17.90;99.90
39099;DHT22;24844;52.380;7.018;2023-09-07T01:36:57;17.90;99.90
39099;DHT22;24844;52.380;7.018;2023-09-07T01:39:23;17.80;99.90
39099;DHT22;24844;52.380;7.018;2023-09-07T01:41:48;17.80;99.90
39099;DHT22;24844;52.380;7.018;2023-09-07T01:44:14;17.80;99.90
39099;DHT22;24844;52.380;7.018;2023-09-07T01:46:40;17.80;99.90
39099;DHT22;24844;52.380;7.018;2023-09-07T01:49:05;17.80;99.90
39099;DHT22;24844;52.380;7.018;2023-09-07T01:51:31;17.80;99.90
39099;DHT22;24844;52.380;7.018;2023-09-07T01:53:56;17.90;99.90
39099;DHT22;24844;52.380;7.018;2023-09-07T01:56:22;17.80;99.90
39099;DHT22;24844;52.380;7.018;2023-09-07T01:58:47;17.80;99.90
39099;DHT22;24844;52.380;7.018;2023-09-07T02:01:30;17.80;99.90
39099;DHT22;24844;52.380;7.018;2023-09-07T02:03:56;17.80;99.90
39099;DHT22;24844;52.380;7.018;2023-09-07T02:06:23;17.80;99.90
39099;DHT22;24844;52.380;7.018;2023-09-07T02:08:48;17.80;99.90
39099;DHT22;24844;52.380;7.018;2023-09-07T02:11:15;17.80;99.90
39099;DHT22;24844;52.380;7.018;2023-09-07T02:13:46;17.80;99.90
39099;DHT22;24844;52.380;7.018;2023-09-07T02:16:11;17.90;99.90
39099;DHT22;24844;52.380;7.018;2023-09-07T02:18:37;17.80;99.90
39099;DHT22;24844;52.380;7.018;2023-09-07T02:21:05;17.80;99.90
39099;DHT22;24844;52.380;7.018;2023-09-07T02:23:32;17.80;99.90
39099;DHT22;24844;52.380;7.018;2023-09-07T02:25:58;17.70;99.90
39099;DHT22;24844;52.380;7.018;2023-09-07T02:28:24;17.70;99.90
39099;DHT22;24844;52.380;7.018;2023-09-07T02:30:54;17.70;99.90
39099;DHT22;24844;52.380;7.018;2023-09-07T02:33:20;17.60;99.90
39099;DHT22;24844;52.380;7.018;2023-09-07T02:35:48;17.60;99.90
39099;DHT22;24844;52.380;7.018;2023-09-07T02:38:15;17.50;99.90
39099;DHT22;24844;52.380;7.018;2023-09-07T02:40:43;17.50;99.90
39099;DHT22;24844;52.380;7.018;2023-09-07T02:43:10;17.40;99.90
39099;DHT22;24844;52.380;7.018;2023-09-07T02:45:36;17.40;99.90
39099;DHT22;24844;52.380;7.018;2023-09-07T02:48:02;17.30;99.90
39099;DHT22;24844;52.380;7.018;2023-09-07T02:50:32;17.20;99.90
39099;DHT22;24844;52.380;7.018;2023-09-07T02:52:59;17.20;99.90
39099;DHT22;24844;52.380;7.018;2023-09-07T02:55:26;17.10;99.90
39099;DHT22;24844;52.380;7.018;2023-09-07T02:57:52;17.10;99.90
39099;DHT22;24844;52.380;7.018;2023-09-07T03:00:17;17.10;99.90
39099;DHT22;24844;52.380;7.018;2023-09-07T03:02:44;17.00;99.90
39099;DHT22;24844;52.380;7.018;2023-09-07T03:05:09;17.00;99.90
39099;DHT22;24844;52.380;7.018;2023-09-07T03:07:35;17.00;99.90
39099;DHT22;24844;52.380;7.018;2023-09-07T03:10:01;17.00;99.90
39099;DHT22;24844;52.380;7.018;2023-09-07T03:12:27;17.00;99.90
39099;DHT22;24844;52.380;7.018;2023-09-07T03:14:53;17.10;99.90
39099;DHT22;24844;52.380;7.018;2023-09-07T03:17:19;17.10;99.90
39099;DHT22;24844;52.380;7.018;2023-09-07T03:19:46;17.00;99.90
39099;DHT22;24844;52.380;7.018;2023-09-07T03:22:12;17.00;99.90
39099;DHT22;24844;52.380;7.018;2023-09-07T03:24:38;16.90;99.90
39099;DHT22;24844;52.380;7.018;2023-09-07T03:27:05;16.90;99.90
39099;DHT22;24844;52.380;7.018;2023-09-07T03:29:34;16.80;99.90
39099;DHT22;24844;52.380;7.018;2023-09-07T03:32:01;16.80;99.90
39099;DHT22;24844;52.380;7.018;2023-09-07T03:34:26;16.70;99.90
39099;DHT22;24844;52.380;7.018;2023-09-07T03:36:52;16.70;99.90
39099;DHT22;24844;52.380;7.018;2023-09-07T03:39:18;16.60;99.90
39099;DHT22;24844;52.380;7.018;2023-09-07T03:41:44;16.50;99.90
39099;DHT22;24844;52.380;7.018;2023-09-07T03:44:10;16.50;99.90
39099;DHT22;24844;52.380;7.018;2023-09-07T03:46:36;16.40;99.90
39099;DHT22;24844;52.380;7.018;2023-09-07T03:49:02;16.40;99.90
39099;DHT22;24844;52.380;7.018;2023-09-07T03:51:27;16.40;99.90
39099;DHT22;24844;52.380;7.018;2023-09-07T03:53:53;16.30;99.90
39099;DHT22;24844;52.380;7.018;2023-09-07T03:56:19;16.20;99.90
39099;DHT22;24844;52.380;7.018;2023-09-07T03:58:45;16.20;99.90
39099;DHT22;24844;52.380;7.018;2023-09-07T04:01:13;16.20;99.90
39099;DHT22;24844;52.380;7.018;2023-09-07T04:03:39;16.10;99.90
39099;DHT22;24844;52.380;7.018;2023-09-07T04:06:05;16.10;99.90
39099;DHT22;24844;52.380;7.018;2023-09-07T04:08:31;16.10;99.90
39099;DHT22;24844;52.380;7.018;2023-09-07T04:10:57;16.10;99.90
39099;DHT22;24844;52.380;7.018;2023-09-07T04:13:23;16.10;99.90
39099;DHT22;24844;52.380;7.018;2023-09-07T04:15:49;16.00;99.90
39099;DHT22;24844;52.380;7.018;2023-09-07T04:18:14;16.00;99.90
39099;DHT22;24844;52.380;7.018;2023-09-07T04:20:42;16.00;99.90
39099;DHT22;24844;52.380;7.018;2023-09-07T04:23:07;16.00;99.90
39099;DHT22;24844;52.380;7.018;2023-09-07T04:25:33;15.90;99.90
39099;DHT22;24844;52.380;7.018;2023-09-07T04:27:59;15.90;99.90
39099;DHT22;24844;52.380;7.018;2023-09-07T04:30:24;15.90;99.90
39099;DHT22;24844;52.380;7.018;2023-09-07T04:32:50;15.90;99.90
39099;DHT22;24844;52.380;7.018;2023-09-07T04:35:15;15.90;99.90
39099;DHT22;24844;52.380;7.018;2023-09-07T04:37:45;15.90;99.90
39099;DHT22;24844;52.380;7.018;2023-09-07T04:40:11;15.90;99.90
39099;DHT22;24844;52.380;7.018;2023-09-07T04:42:37;15.90;99.90
39099;DHT22;24844;52.380;7.018;2023-09-07T04:45:05;15.80;99.90
39099;DHT22;24844;52.380;7.018;2023-09-07T04:47:31;15.80;99.90
39099;DHT22;24844;52.380;7.018;2023-09-07T04:49:56;15.80;99.90
39099;DHT22;24844;52.380;7.018;2023-09-07T04:52:22;15.80;99.90
39099;DHT22;24844;52.380;7.018;2023-09-07T04:54:47;15.90;99.90
39099;DHT22;24844;52.380;7.018;2023-09-07T04:57:16;15.90;99.90
39099;DHT22;24844;52.380;7.018;2023-09-07T04:59:42;15.90;99.90
39099;DHT22;24844;52.380;7.018;2023-09-07T05:02:07;15.80;99.90
39099;DHT22;24844;52.380;7.018;2023-09-07T05:04:33;15.80;99.90
39099;DHT22;24844;52.380;7.018;2023-09-07T05:06:59;15.80;99.90
39099;DHT22;24844;52.380;7.018;2023-09-07T05:09:24;15.80;99.90
39099;DHT22;24844;52.380;7.018;2023-09-07T05:11:51;15.80;99.90
39099;DHT22;24844;52.380;7.018;2023-09-07T05:14:17;15.80;99.90
39099;DHT22;24844;52.380;7.018;2023-09-07T05:16:43;15.80;99.90
39099;DHT22;24844;52.380;7.018;2023-09-07T05:19:09;15.80;99.90
39099;DHT22;24844;52.380;7.018;2023-09-07T05:21:35;15.80;99.90
39099;DHT22;24844;52.380;7.018;2023-09-07T05:24:00;15.90;99.90
39099;DHT22;24844;52.380;7.018;2023-09-07T05:26:26;15.90;99.90
39099;DHT22;24844;52.380;7.018;2023-09-07T05:28:52;15.90;99.90
39099;DHT22;24844;52.380;7.018;2023-09-07T05:31:17;16.00;99.90
39099;DHT22;24844;52.380;7.018;2023-09-07T05:33:43;16.00;99.90
39099;DHT22;24844;52.380;7.018;2023-09-07T05:36:09;16.10;99.90
39099;DHT22;24844;52.380;7.018;2023-09-07T05:38:34;16.10;99.90
39099;DHT22;24844;52.380;7.018;2023-09-07T05:41:00;16.20;99.90
39099;DHT22;24844;52.380;7.018;2023-09-07T05:43:26;16.20;99.90
39099;DHT22;24844;52.380;7.018;2023-09-07T05:45:51;16.30;99.90
39099;DHT22;24844;52.380;7.018;2023-09-07T05:48:17;16.30;99.90
39099;DHT22;24844;52.380;7.018;2023-09-07T05:50:43;16.40;99.90
39099;DHT22;24844;52.380;7.018;2023-09-07T05:53:09;16.50;99.90
39099;DHT22;24844;52.380;7.018;2023-09-07T05:55:35;16.60;99.90
39099;DHT22;24844;52.380;7.018;2023-09-07T05:58:05;16.60;99.90
39099;DHT22;24844;52.380;7.018;2023-09-07T06:00:30;16.60;99.90
39099;DHT22;24844;52.380;7.018;2023-09-07T06:02:56;16.70;99.90
39099;DHT22;24844;52.380;7.018;2023-09-07T06:05:22;16.80;99.90
39099;DHT22;24844;52.380;7.018;2023-09-07T06:07:48;16.90;99.90
39099;DHT22;24844;52.380;7.018;2023-09-07T06:10:13;17.00;99.90
39099;DHT22;24844;52.380;7.018;2023-09-07T06:12:39;17.00;99.90
39099;DHT22;24844;52.380;7.018;2023-09-07T06:15:05;17.20;99.90
39099;DHT22;24844;52.380;7.018;2023-09-07T06:17:31;17.20;99.90
39099;DHT22;24844;52.380;7.018;2023-09-07T06:19:57;17.40;99.90
39099;DHT22;24844;52.380;7.018;2023-09-07T06:22:23;17.50;99.90
39099;DHT22;24844;52.380;7.018;2023-09-07T06:24:49;17.40;99.90
39099;DHT22;24844;52.380;7.018;2023-09-07T06:27:15;17.60;99.90
39099;DHT22;24844;52.380;7.018;2023-09-07T06:29:40;17.80;99.90
39099;DHT22;24844;52.380;7.018;2023-09-07T06:32:06;17.90;99.90
39099;DHT22;24844;52.380;7.018;2023-09-07T06:34:32;17.90;99.90
39099;DHT22;24844;52.380;7.018;2023-09-07T06:36:57;18.10;99.90
39099;DHT22;24844;52.380;7.018;2023-09-07T06:39:23;18.20;99.90
39099;DHT22;24844;52.380;7.018;2023-09-07T06:41:49;18.40;99.90
39099;DHT22;24844;52.380;7.018;2023-09-07T06:44:14;18.50;99.90
39099;DHT22;24844;52.380;7.018;2023-09-07T06:46:40;18.40;99.90
39099;DHT22;24844;52.380;7.018;2023-09-07T06:49:06;18.50;99.90
39099;DHT22;24844;52.380;7.018;2023-09-07T06:51:32;18.50;99.90
39099;DHT22;24844;52.380;7.018;2023-09-07T06:53:58;18.60;99.90
39099;DHT22;24844;52.380;7.018;2023-09-07T06:56:23;18.90;99.90
39099;DHT22;24844;52.380;7.018;2023-09-07T06:58:49;19.00;99.90
39099;DHT22;24844;52.380;7.018;2023-09-07T07:01:15;19.10;99.90
39099;DHT22;24844;52.380;7.018;2023-09-07T07:03:41;19.20;99.90
39099;DHT22;24844;52.380;7.018;2023-09-07T07:06:07;19.30;99.90
39099;DHT22;24844;52.380;7.018;2023-09-07T07:08:33;19.60;99.90
39099;DHT22;24844;52.380;7.018;2023-09-07T07:10:58;19.60;99.90
39099;DHT22;24844;52.380;7.018;2023-09-07T07:13:25;19.70;99.90
39099;DHT22;24844;52.380;7.018;2023-09-07T07:15:51;20.00;99.90
39099;DHT22;24844;52.380;7.018;2023-09-07T07:18:17;20.20;99.90
39099;DHT22;24844;52.380;7.018;2023-09-07T07:20:44;20.30;99.90
39099;DHT22;24844;52.380;7.018;2023-09-07T07:23:10;20.50;99.90
39099;DHT22;24844;52.380;7.018;2023-09-07T07:25:36;20.50;99.90
39099;DHT22;24844;52.380;7.018;2023-09-07T07:28:03;20.80;99.90
39099;DHT22;24844;52.380;7.018;2023-09-07T07:30:34;20.90;99.90
39099;DHT22;24844;52.380;7.018;2023-09-07T07:33:00;21.10;99.90
39099;DHT22;24844;52.380;7.018;2023-09-07T07:35:26;21.30;99.90
39099;DHT22;24844;52.380;7.018;2023-09-07T07:37:52;21.50;99.90
39099;DHT22;24844;52.380;7.018;2023-09-07T07:40:18;21.90;99.90
39099;DHT22;24844;52.380;7.018;2023-09-07T07:42:45;22.10;99.90
39099;DHT22;24844;52.380;7.018;2023-09-07T07:45:11;22.30;99.90
39099;DHT22;24844;52.380;7.018;2023-09-07T07:47:38;22.70;99.90
39099;DHT22;24844;52.380;7.018;2023-09-07T07:50:04;23.20;99.90
39099;DHT22;24844;52.380;7.018;2023-09-07T07:52:30;23.90;99.90
39099;DHT22;24844;52.380;7.018;2023-09-07T07:54:55;24.80;99.90
39099;DHT22;24844;52.380;7.018;2023-09-07T07:57:21;25.70;99.90
39099;DHT22;24844;52.380;7.018;2023-09-07T07:59:46;26.80;99.90
39099;DHT22;24844;52.380;7.018;2023-09-07T08:02:12;26.60;97.40
39099;DHT22;24844;52.380;7.018;2023-09-07T08:04:38;27.10;97.70
39099;DHT22;24844;52.380;7.018;2023-09-07T08:07:03;27.60;97.20
39099;DHT22;24844;52.380;7.018;2023-09-07T08:09:30;28.10;95.70
39099;DHT22;24844;52.380;7.018;2023-09-07T08:11:56;28.40;94.80
39099;DHT22;24844;52.380;7.018;2023-09-07T08:14:26;28.40;94.70
39099;DHT22;24844;52.380;7.018;2023-09-07T08:16:53;29.70;94.00
39099;DHT22;24844;52.380;7.018;2023-09-07T08:19:19;29.90;93.00
39099;DHT22;24844;52.380;7.018;2023-09-07T08:21:45;30.50;92.30
39099;DHT22;24844;52.380;7.018;2023-09-07T08:24:11;29.90;90.90
39099;DHT22;24844;52.380;7.018;2023-09-07T08:26:37;30.10;91.60
39099;DHT22;24844;52.380;7.018;2023-09-07T08:29:03;31.40;90.60
39099;DHT22;24844;52.380;7.018;2023-09-07T08:31:37;31.40;90.20
39099;DHT22;24844;52.380;7.018;2023-09-07T08:34:06;31.10;88.20
39099;DHT22;24844;52.380;7.018;2023-09-07T08:36:32;31.80;87.70
39099;DHT22;24844;52.380;7.018;2023-09-07T08:39:03;31.60;87.70
39099;DHT22;24844;52.380;7.018;2023-09-07T08:41:36;32.00;85.80
39099;DHT22;24844;52.380;7.018;2023-09-07T08:44:17;31.00;86.60
39099;DHT22;24844;52.380;7.018;2023-09-07T08:46:45;30.80;88.10
39099;DHT22;24844;52.380;7.018;2023-09-07T08:49:11;33.00;87.40
39099;DHT22;24844;52.380;7.018;2023-09-07T08:51:38;34.40;85.20
39099;DHT22;24844;52.380;7.018;2023-09-07T08:54:04;35.50;82.40
39099;DHT22;24844;52.380;7.018;2023-09-07T08:56:30;35.80;80.30
39099;DHT22;24844;52.380;7.018;2023-09-07T08:58:57;36.60;78.40
39099;DHT22;24844;52.380;7.018;2023-09-07T09:01:23;37.20;78.00
39099;DHT22;24844;52.380;7.018;2023-09-07T09:03:50;37.60;82.80
39099;DHT22;24844;52.380;7.018;2023-09-07T09:06:20;38.10;73.40
39099;DHT22;24844;52.380;7.018;2023-09-07T09:08:51;38.80;71.80
39099;DHT22;24844;52.380;7.018;2023-09-07T09:11:20;37.00;70.90
39099;DHT22;24844;52.380;7.018;2023-09-07T09:13:47;36.50;70.40
39099;DHT22;24844;52.380;7.018;2023-09-07T09:16:13;37.50;70.80
39099;DHT22;24844;52.380;7.018;2023-09-07T09:18:59;36.00;69.10
39099;DHT22;24844;52.380;7.018;2023-09-07T09:21:26;34.40;72.20
39099;DHT22;24844;52.380;7.018;2023-09-07T09:23:53;36.30;71.30
39099;DHT22;24844;52.380;7.018;2023-09-07T09:26:20;35.70;70.20
39099;DHT22;24844;52.380;7.018;2023-09-07T09:28:47;34.70;71.00
39099;DHT22;24844;52.380;7.018;2023-09-07T09:31:13;34.50;71.20
39099;DHT22;24844;52.380;7.018;2023-09-07T09:33:40;34.30;72.50
39099;DHT22;24844;52.380;7.018;2023-09-07T09:36:07;35.20;71.30
39099;DHT22;24844;52.380;7.018;2023-09-07T09:38:33;37.10;69.30
39099;DHT22;24844;52.380;7.018;2023-09-07T09:41:00;38.10;68.40
39099;DHT22;24844;52.380;7.018;2023-09-07T09:43:26;38.00;67.60
39099;DHT22;24844;52.380;7.018;2023-09-07T09:45:52;37.20;67.50
39099;DHT22;24844;52.380;7.018;2023-09-07T09:48:22;36.80;67.00
39099;DHT22;24844;52.380;7.018;2023-09-07T09:50:49;37.30;64.30
39099;DHT22;24844;52.380;7.018;2023-09-07T09:53:18;35.20;65.30
39099;DHT22;24844;52.380;7.018;2023-09-07T09:55:49;34.30;66.90
39099;DHT22;24844;52.380;7.018;2023-09-07T09:58:16;33.50;66.30
39099;DHT22;24844;52.380;7.018;2023-09-07T10:00:47;32.40;70.60
39099;DHT22;24844;52.380;7.018;2023-09-07T10:03:17;32.40;70.30
39099;DHT22;24844;52.380;7.018;2023-09-07T10:05:45;32.30;71.10
39099;DHT22;24844;52.380;7.018;2023-09-07T10:08:17;32.00;71.80
39099;DHT22;24844;52.380;7.018;2023-09-07T10:10:46;31.90;70.50
39099;DHT22;24844;52.380;7.018;2023-09-07T10:13:16;31.20;71.70
39099;DHT22;24844;52.380;7.018;2023-09-07T10:15:42;31.20;71.80
39099;DHT22;24844;52.380;7.018;2023-09-07T10:18:12;31.00;73.30
39099;DHT22;24844;52.380;7.018;2023-09-07T10:20:55;31.50;74.10
39099;DHT22;24844;52.380;7.018;2023-09-07T10:23:41;32.00;74.00
39099;DHT22;24844;52.380;7.018;2023-09-07T10:26:17;31.50;74.10
39099;DHT22;24844;52.380;7.018;2023-09-07T10:29:00;31.40;74.60
39099;DHT22;24844;52.380;7.018;2023-09-07T10:31:29;31.80;73.00
39099;DHT22;24844;52.380;7.018;2023-09-07T10:33:56;32.10;74.60
39099;DHT22;24844;52.380;7.018;2023-09-07T10:36:25;32.60;74.30
39099;DHT22;24844;52.380;7.018;2023-09-07T10:38:52;33.40;72.70
39099;DHT22;24844;52.380;7.018;2023-09-07T10:41:20;33.70;69.90
39099;DHT22;24844;52.380;7.018;2023-09-07T10:43:53;33.70;69.70
39099;DHT22;24844;52.380;7.018;2023-09-07T10:46:20;33.90;69.70
39099;DHT22;24844;52.380;7.018;2023-09-07T10:48:52;34.80;68.00
39099;DHT22;24844;52.380;7.018;2023-09-07T10:51:21;34.90;67.70
39099;DHT22;24844;52.380;7.018;2023-09-07T10:53:47;34.70;66.30
39099;DHT22;24844;52.380;7.018;2023-09-07T10:56:12;34.10;68.80
39099;DHT22;24844;52.380;7.018;2023-09-07T10:58:39;35.40;67.30
39099;DHT22;24844;52.380;7.018;2023-09-07T11:01:08;34.90;66.90
39099;DHT22;24844;52.380;7.018;2023-09-07T11:03:35;36.20;66.30
39099;DHT22;24844;52.380;7.018;2023-09-07T11:06:06;37.70;65.30
39099;DHT22;24844;52.380;7.018;2023-09-07T11:08:34;37.90;63.50
39099;DHT22;24844;52.380;7.018;2023-09-07T11:11:03;38.10;64.10
39099;DHT22;24844;52.380;7.018;2023-09-07T11:13:28;37.20;64.20
39099;DHT22;24844;52.380;7.018;2023-09-07T11:15:55;36.90;64.50
39099;DHT22;24844;52.380;7.018;2023-09-07T11:18:22;35.80;65.60
39099;DHT22;24844;52.380;7.018;2023-09-07T11:20:49;32.30;70.60
39099;DHT22;24844;52.380;7.018;2023-09-07T11:23:16;32.00;71.20
39099;DHT22;24844;52.380;7.018;2023-09-07T11:25:42;30.80;71.70
39099;DHT22;24844;52.380;7.018;2023-09-07T11:28:09;30.50;71.40
39099;DHT22;24844;52.380;7.018;2023-09-07T11:30:35;30.00;71.80
39099;DHT22;24844;52.380;7.018;2023-09-07T11:33:07;29.50;71.60
39099;DHT22;24844;52.380;7.018;2023-09-07T11:35:34;29.50;71.70
39099;DHT22;24844;52.380;7.018;2023-09-07T11:38:03;29.60;72.10
39099;DHT22;24844;52.380;7.018;2023-09-07T11:40:30;29.70;71.80
39099;DHT22;24844;52.380;7.018;2023-09-07T11:42:56;29.70;72.70
39099;DHT22;24844;52.380;7.018;2023-09-07T11:45:22;29.40;72.30
39099;DHT22;24844;52.380;7.018;2023-09-07T11:47:48;29.80;72.40
39099;DHT22;24844;52.380;7.018;2023-09-07T11:50:16;29.80;72.70
39099;DHT22;24844;52.380;7.018;2023-09-07T11:52:42;29.70;73.30
39099;DHT22;24844;52.380;7.018;2023-09-07T11:55:08;29.70;73.60
39099;DHT22;24844;52.380;7.018;2023-09-07T11:57:36;29.70;72.20
39099;DHT22;24844;52.380;7.018;2023-09-07T12:00:02;29.50;71.20
39099;DHT22;24844;52.380;7.018;2023-09-07T12:02:28;29.30;73.00
39099;DHT22;24844;52.380;7.018;2023-09-07T12:04:53;29.30;72.30
39099;DHT22;24844;52.380;7.018;2023-09-07T12:07:20;29.40;72.20
39099;DHT22;24844;52.380;7.018;2023-09-07T12:09:45;29.40;72.80
39099;DHT22;24844;52.380;7.018;2023-09-07T12:12:11;29.50;72.10
39099;DHT22;24844;52.380;7.018;2023-09-07T12:14:36;29.50;70.70
39099;DHT22;24844;52.380;7.018;2023-09-07T12:17:02;29.60;71.50
39099;DHT22;24844;52.380;7.018;2023-09-07T12:19:28;29.70;72.50
39099;DHT22;24844;52.380;7.018;2023-09-07T12:21:54;29.50;73.70
39099;DHT22;24844;52.380;7.018;2023-09-07T12:24:19;29.60;72.70
39099;DHT22;24844;52.380;7.018;2023-09-07T12:26:45;29.60;72.50
39099;DHT22;24844;52.380;7.018;2023-09-07T12:29:11;29.60;71.30
39099;DHT22;24844;52.380;7.018;2023-09-07T12:31:37;29.60;70.90
39099;DHT22;24844;52.380;7.018;2023-09-07T12:34:02;29.60;71.00
39099;DHT22;24844;52.380;7.018;2023-09-07T12:36:28;29.70;71.30
39099;DHT22;24844;52.380;7.018;2023-09-07T12:38:55;29.50;71.40
39099;DHT22;24844;52.380;7.018;2023-09-07T12:41:28;29.50;69.80
39099;DHT22;24844;52.380;7.018;2023-09-07T12:43:54;29.60;70.70
39099;DHT22;24844;52.380;7.018;2023-09-07T12:46:20;29.60;72.00
39099;DHT22;24844;52.380;7.018;2023-09-07T12:48:45;29.70;70.80
39099;DHT22;24844;52.380;7.018;2023-09-07T12:51:11;29.70;71.90
39099;DHT22;24844;52.380;7.018;2023-09-07T12:53:37;29.90;73.50
39099;DHT22;24844;52.380;7.018;2023-09-07T12:56:02;30.00;73.70
39099;DHT22;24844;52.380;7.018;2023-09-07T12:58:28;30.00;72.70
39099;DHT22;24844;52.380;7.018;2023-09-07T13:00:54;29.90;69.30
39099;DHT22;24844;52.380;7.018;2023-09-07T13:03:20;30.00;69.60
39099;DHT22;24844;52.380;7.018;2023-09-07T13:05:46;30.00;69.00
39099;DHT22;24844;52.380;7.018;2023-09-07T13:08:11;30.00;68.70
39099;DHT22;24844;52.380;7.018;2023-09-07T13:10:37;30.00;67.20
39099;DHT22;24844;52.380;7.018;2023-09-07T13:13:04;29.90;68.60
39099;DHT22;24844;52.380;7.018;2023-09-07T13:15:29;29.80;70.00
39099;DHT22;24844;52.380;7.018;2023-09-07T13:17:55;29.90;70.70
39099;DHT22;24844;52.380;7.018;2023-09-07T13:20:20;30.00;70.80
39099;DHT22;24844;52.380;7.018;2023-09-07T13:22:46;30.10;68.80
39099;DHT22;24844;52.380;7.018;2023-09-07T13:25:12;30.00;69.20
39099;DHT22;24844;52.380;7.018;2023-09-07T13:27:38;30.10;68.80
39099;DHT22;24844;52.380;7.018;2023-09-07T13:30:05;30.00;67.70
39099;DHT22;24844;52.380;7.018;2023-09-07T13:32:31;30.00;68.90
39099;DHT22;24844;52.380;7.018;2023-09-07T13:34:58;30.20;70.30
39099;DHT22;24844;52.380;7.018;2023-09-07T13:37:23;30.20;69.40
39099;DHT22;24844;52.380;7.018;2023-09-07T13:39:49;30.10;67.90
39099;DHT22;24844;52.380;7.018;2023-09-07T13:42:14;30.20;69.20
39099;DHT22;24844;52.380;7.018;2023-09-07T13:44:40;30.20;68.50
39099;DHT22;24844;52.380;7.018;2023-09-07T13:47:06;30.10;68.50
39099;DHT22;24844;52.380;7.018;2023-09-07T13:49:34;30.10;68.80
39099;DHT22;24844;52.380;7.018;2023-09-07T13:51:59;30.00;68.90
39099;DHT22;24844;52.380;7.018;2023-09-07T13:54:25;30.10;68.40
39099;DHT22;24844;52.380;7.018;2023-09-07T13:56:51;30.00;69.70
39099;DHT22;24844;52.380;7.018;2023-09-07T13:59:16;30.10;70.20
39099;DHT22;24844;52.380;7.018;2023-09-07T14:01:43;30.00;69.50
39099;DHT22;24844;52.380;7.018;2023-09-07T14:04:09;30.10;69.70
39099;DHT22;24844;52.380;7.018;2023-09-07T14:06:34;30.00;69.60
39099;DHT22;24844;52.380;7.018;2023-09-07T14:09:00;30.10;70.60
39099;DHT22;24844;52.380;7.018;2023-09-07T14:11:26;30.10;69.50
39099;DHT22;24844;52.380;7.018;2023-09-07T14:13:51;30.10;70.20
39099;DHT22;24844;52.380;7.018;2023-09-07T14:16:21;30.10;70.70
39099;DHT22;24844;52.380;7.018;2023-09-07T14:18:47;30.00;69.40
39099;DHT22;24844;52.380;7.018;2023-09-07T14:21:16;30.20;70.30
39099;DHT22;24844;52.380;7.018;2023-09-07T14:23:43;30.30;70.40
39099;DHT22;24844;52.380;7.018;2023-09-07T14:26:08;30.10;70.60
39099;DHT22;24844;52.380;7.018;2023-09-07T14:28:34;30.30;69.00
39099;DHT22;24844;52.380;7.018;2023-09-07T14:31:00;30.30;70.50
39099;DHT22;24844;52.380;7.018;2023-09-07T14:33:29;30.30;71.90
39099;DHT22;24844;52.380;7.018;2023-09-07T14:35:55;30.60;72.10
39099;DHT22;24844;52.380;7.018;2023-09-07T14:38:21;30.60;73.10
39099;DHT22;24844;52.380;7.018;2023-09-07T14:40:48;30.80;72.80
39099;DHT22;24844;52.380;7.018;2023-09-07T14:43:15;30.80;73.70
39099;DHT22;24844;52.380;7.018;2023-09-07T14:45:42;30.70;73.60
39099;DHT22;24844;52.380;7.018;2023-09-07T14:48:08;31.00;73.10
39099;DHT22;24844;52.380;7.018;2023-09-07T14:50:33;30.80;73.40
39099;DHT22;24844;52.380;7.018;2023-09-07T14:52:59;30.60;73.80
39099;DHT22;24844;52.380;7.018;2023-09-07T14:55:26;30.50;73.70
39099;DHT22;24844;52.380;7.018;2023-09-07T14:57:52;30.60;73.60
39099;DHT22;24844;52.380;7.018;2023-09-07T15:00:18;30.30;73.30
39099;DHT22;24844;52.380;7.018;2023-09-07T15:02:43;30.30;75.20
39099;DHT22;24844;52.380;7.018;2023-09-07T15:05:09;30.20;76.90
39099;DHT22;24844;52.380;7.018;2023-09-07T15:07:34;30.30;75.20
39099;DHT22;24844;52.380;7.018;2023-09-07T15:10:00;30.30;75.40
39099;DHT22;24844;52.380;7.018;2023-09-07T15:12:26;30.30;75.40
39099;DHT22;24844;52.380;7.018;2023-09-07T15:14:52;30.50;75.10
39099;DHT22;24844;52.380;7.018;2023-09-07T15:17:18;30.00;75.80
39099;DHT22;24844;52.380;7.018;2023-09-07T15:19:43;29.80;77.90
39099;DHT22;24844;52.380;7.018;2023-09-07T15:22:09;30.20;74.30
39099;DHT22;24844;52.380;7.018;2023-09-07T15:24:35;30.20;74.10
39099;DHT22;24844;52.380;7.018;2023-09-07T15:27:08;30.10;73.00